sensor_id;sensor_type;location;lat;lon;timestamp;temperature;humidity
32446;DHT22;18899;50.748;7.102;2023-07-13T00:01:12;17.10;90.90
32446;DHT22;18899;50.748;7.102;2023-07-13T00:03:38;17.00;91.10
32446;DHT22;18899;50.748;7.102;2023-07-13T00:06:07;17.10;91.90
32446;DHT22;18899;50.748;7.102;2023-07-13T00:08:33;17.00;92.60
32446;DHT22;18899;50.748;7.102;2023-07-13T00:11:01;16.90;93.60
32446;DHT22;18899;50.748;7.102;2023-07-13T00:13:27;16.90;94.70
32446;DHT22;18899;50.748;7.102;2023-07-13T00:15:52;16.80;96.10
32446;DHT22;18899;50.748;7.102;2023-07-13T00:18:19;16.80;97.40
32446;DHT22;18899;50.748;7.102;2023-07-13T00:20:45;16.80;98.30
32446;DHT22;18899;50.748;7.102;2023-07-13T00:23:11;16.70;98.30
32446;DHT22;18899;50.748;7.102;2023-07-13T00:25:36;16.80;99.90
32446;DHT22;18899;50.748;7.102;2023-07-13T00:28:02;16.80;99.90
32446;DHT22;18899;50.748;7.102;2023-07-13T00:30:28;16.80;99.90
32446;DHT22;18899;50.748;7.102;2023-07-13T00:32:54;16.90;99.90
32446;DHT22;18899;50.748;7.102;2023-07-13T00:35:19;16.90;99.90
32446;DHT22;18899;50.748;7.102;2023-07-13T00:37:45;17.00;99.90
32446;DHT22;18899;50.748;7.102;2023-07-13T00:40:15;16.90;99.90
32446;DHT22;18899;50.748;7.102;2023-07-13T00:42:41;16.90;99.90
32446;DHT22;18899;50.748;7.102;2023-07-13T00:47:53;16.90;99.90
32446;DHT22;18899;50.748;7.102;2023-07-13T00:50:21;16.90;99.90
32446;DHT22;18899;50.748;7.102;2023-07-13T00:52:50;16.90;99.90
32446;DHT22;18899;50.748;7.102;2023-07-13T00:55:17;16.80;99.90
32446;DHT22;18899;50.748;7.102;2023-07-13T00:57:44;16.80;99.90
32446;DHT22;18899;50.748;7.102;2023-07-13T01:00:10;16.80;99.90
32446;DHT22;18899;50.748;7.102;2023-07-13T01:02:42;16.80;99.90
32446;DHT22;18899;50.748;7.102;2023-07-13T01:05:10;16.80;99.90
32446;DHT22;18899;50.748;7.102;2023-07-13T01:07:36;16.80;99.90
32446;DHT22;18899;50.748;7.102;2023-07-13T01:10:03;16.80;99.90
32446;DHT22;18899;50.748;7.102;2023-07-13T01:12:29;16.80;99.90
32446;DHT22;18899;50.748;7.102;2023-07-13T01:14:57;16.80;99.90
32446;DHT22;18899;50.748;7.102;2023-07-13T01:17:24;16.80;99.90
32446;DHT22;18899;50.748;7.102;2023-07-13T01:19:49;16.80;99.90
32446;DHT22;18899;50.748;7.102;2023-07-13T01:22:17;16.70;99.90
32446;DHT22;18899;50.748;7.102;2023-07-13T01:24:46;16.70;99.90
32446;DHT22;18899;50.748;7.102;2023-07-13T01:27:14;16.60;99.90
32446;DHT22;18899;50.748;7.102;2023-07-13T01:29:42;16.50;99.90
32446;DHT22;18899;50.748;7.102;2023-07-13T01:32:09;16.50;99.90
32446;DHT22;18899;50.748;7.102;2023-07-13T01:34:36;16.60;99.90
32446;DHT22;18899;50.748;7.102;2023-07-13T01:37:03;16.60;99.90
32446;DHT22;18899;50.748;7.102;2023-07-13T01:39:29;16.60;99.90
32446;DHT22;18899;50.748;7.102;2023-07-13T01:41:54;16.60;99.90
32446;DHT22;18899;50.748;7.102;2023-07-13T01:44:20;16.60;99.90
32446;DHT22;18899;50.748;7.102;2023-07-13T01:46:46;16.60;99.90
32446;DHT22;18899;50.748;7.102;2023-07-13T01:49:11;16.60;99.90
32446;DHT22;18899;50.748;7.102;2023-07-13T01:51:37;16.60;99.90
32446;DHT22;18899;50.748;7.102;2023-07-13T01:54:03;16.50;99.90
32446;DHT22;18899;50.748;7.102;2023-07-13T01:56:28;16.50;99.90
32446;DHT22;18899;50.748;7.102;2023-07-13T01:58:54;16.50;99.90
32446;DHT22;18899;50.748;7.102;2023-07-13T02:01:19;16.50;99.90
32446;DHT22;18899;50.748;7.102;2023-07-13T02:03:45;16.60;99.90
32446;DHT22;18899;50.748;7.102;2023-07-13T02:06:12;16.70;99.90
32446;DHT22;18899;50.748;7.102;2023-07-13T02:08:38;16.70;99.90
32446;DHT22;18899;50.748;7.102;2023-07-13T02:11:03;16.80;99.90
32446;DHT22;18899;50.748;7.102;2023-07-13T02:13:29;16.90;99.90
32446;DHT22;18899;50.748;7.102;2023-07-13T02:15:55;16.90;99.90
32446;DHT22;18899;50.748;7.102;2023-07-13T02:18:20;16.90;99.90
32446;DHT22;18899;50.748;7.102;2023-07-13T02:20:46;16.80;99.90
32446;DHT22;18899;50.748;7.102;2023-07-13T02:23:12;16.80;99.90
32446;DHT22;18899;50.748;7.102;2023-07-13T02:25:37;16.80;99.90
32446;DHT22;18899;50.748;7.102;2023-07-13T02:28:03;16.80;99.90
32446;DHT22;18899;50.748;7.102;2023-07-13T02:30:30;16.80;99.90
32446;DHT22;18899;50.748;7.102;2023-07-13T02:32:57;17.00;99.90
32446;DHT22;18899;50.748;7.102;2023-07-13T02:35:22;16.90;99.90
32446;DHT22;18899;50.748;7.102;2023-07-13T02:37:48;16.90;99.90
32446;DHT22;18899;50.748;7.102;2023-07-13T02:40:14;16.90;99.90
32446;DHT22;18899;50.748;7.102;2023-07-13T02:42:40;16.90;99.90
32446;DHT22;18899;50.748;7.102;2023-07-13T02:45:06;16.90;99.90
32446;DHT22;18899;50.748;7.102;2023-07-13T02:47:33;16.90;99.90
32446;DHT22;18899;50.748;7.102;2023-07-13T02:49:58;16.90;99.90
32446;DHT22;18899;50.748;7.102;2023-07-13T02:52:24;16.90;99.90
32446;DHT22;18899;50.748;7.102;2023-07-13T02:54:50;16.90;99.90
32446;DHT22;18899;50.748;7.102;2023-07-13T02:57:16;16.80;99.90
32446;DHT22;18899;50.748;7.102;2023-07-13T02:59:41;16.80;99.90
32446;DHT22;18899;50.748;7.102;2023-07-13T03:02:07;16.80;99.90
32446;DHT22;18899;50.748;7.102;2023-07-13T03:04:37;16.80;99.90
32446;DHT22;18899;50.748;7.102;2023-07-13T03:07:04;16.80;99.90
32446;DHT22;18899;50.748;7.102;2023-07-13T03:09:30;16.90;99.90
32446;DHT22;18899;50.748;7.102;2023-07-13T03:11:56;16.90;99.90
32446;DHT22;18899;50.748;7.102;2023-07-13T03:14:22;16.90;99.90
32446;DHT22;18899;50.748;7.102;2023-07-13T03:16:48;17.00;99.90
32446;DHT22;18899;50.748;7.102;2023-07-13T03:19:14;17.00;99.90
32446;DHT22;18899;50.748;7.102;2023-07-13T03:21:40;17.00;99.90
32446;DHT22;18899;50.748;7.102;2023-07-13T03:24:06;17.00;99.90
32446;DHT22;18899;50.748;7.102;2023-07-13T03:26:31;17.00;99.90
32446;DHT22;18899;50.748;7.102;2023-07-13T03:28:57;16.90;99.90
32446;DHT22;18899;50.748;7.102;2023-07-13T03:31:26;16.80;99.90
32446;DHT22;18899;50.748;7.102;2023-07-13T03:33:54;16.80;99.90
32446;DHT22;18899;50.748;7.102;2023-07-13T03:36:23;16.70;99.90
32446;DHT22;18899;50.748;7.102;2023-07-13T03:38:54;16.80;99.90
32446;DHT22;18899;50.748;7.102;2023-07-13T03:41:20;16.80;99.90
32446;DHT22;18899;50.748;7.102;2023-07-13T03:43:46;16.80;99.90
32446;DHT22;18899;50.748;7.102;2023-07-13T03:46:16;16.90;99.90
32446;DHT22;18899;50.748;7.102;2023-07-13T03:48:43;16.80;99.90
32446;DHT22;18899;50.748;7.102;2023-07-13T03:51:11;16.80;99.90
32446;DHT22;18899;50.748;7.102;2023-07-13T03:53:41;16.80;99.90
32446;DHT22;18899;50.748;7.102;2023-07-13T03:56:07;16.90;99.90
32446;DHT22;18899;50.748;7.102;2023-07-13T03:58:38;16.90;99.90
32446;DHT22;18899;50.748;7.102;2023-07-13T04:01:07;17.00;99.90
32446;DHT22;18899;50.748;7.102;2023-07-13T04:03:33;17.10;99.90
32446;DHT22;18899;50.748;7.102;2023-07-13T04:06:00;17.10;99.90
32446;DHT22;18899;50.748;7.102;2023-07-13T04:08:27;17.10;99.90
32446;DHT22;18899;50.748;7.102;2023-07-13T04:10:53;17.10;99.90
32446;DHT22;18899;50.748;7.102;2023-07-13T04:13:18;17.10;99.90
32446;DHT22;18899;50.748;7.102;2023-07-13T04:15:44;17.00;99.90
32446;DHT22;18899;50.748;7.102;2023-07-13T04:18:10;17.00;99.90
32446;DHT22;18899;50.748;7.102;2023-07-13T04:20:35;17.10;99.90
32446;DHT22;18899;50.748;7.102;2023-07-13T04:23:01;17.10;99.90
32446;DHT22;18899;50.748;7.102;2023-07-13T04:25:27;17.10;99.90
32446;DHT22;18899;50.748;7.102;2023-07-13T04:27:53;17.20;99.90
32446;DHT22;18899;50.748;7.102;2023-07-13T04:30:19;17.30;99.90
32446;DHT22;18899;50.748;7.102;2023-07-13T04:32:45;17.40;99.90
32446;DHT22;18899;50.748;7.102;2023-07-13T04:35:10;17.60;99.90
32446;DHT22;18899;50.748;7.102;2023-07-13T04:37:36;18.00;99.90
32446;DHT22;18899;50.748;7.102;2023-07-13T04:40:02;18.60;99.90
32446;DHT22;18899;50.748;7.102;2023-07-13T04:42:29;18.90;99.90
32446;DHT22;18899;50.748;7.102;2023-07-13T04:44:55;19.20;99.90
32446;DHT22;18899;50.748;7.102;2023-07-13T04:47:21;19.20;99.90
32446;DHT22;18899;50.748;7.102;2023-07-13T04:49:46;19.10;99.90
32446;DHT22;18899;50.748;7.102;2023-07-13T04:52:12;18.80;99.90
32446;DHT22;18899;50.748;7.102;2023-07-13T04:54:38;18.50;99.90
32446;DHT22;18899;50.748;7.102;2023-07-13T04:57:04;18.20;99.90
32446;DHT22;18899;50.748;7.102;2023-07-13T04:59:32;18.10;99.90
32446;DHT22;18899;50.748;7.102;2023-07-13T05:01:58;17.90;99.90
32446;DHT22;18899;50.748;7.102;2023-07-13T05:04:24;17.80;99.90
32446;DHT22;18899;50.748;7.102;2023-07-13T05:06:49;17.80;99.90
32446;DHT22;18899;50.748;7.102;2023-07-13T05:09:15;17.70;99.90
32446;DHT22;18899;50.748;7.102;2023-07-13T05:11:41;17.80;99.90
32446;DHT22;18899;50.748;7.102;2023-07-13T05:14:06;17.80;99.90
32446;DHT22;18899;50.748;7.102;2023-07-13T05:16:32;17.80;99.90
32446;DHT22;18899;50.748;7.102;2023-07-13T05:18:57;18.10;99.90
32446;DHT22;18899;50.748;7.102;2023-07-13T05:21:23;18.70;99.90
32446;DHT22;18899;50.748;7.102;2023-07-13T05:23:50;19.60;99.90
32446;DHT22;18899;50.748;7.102;2023-07-13T05:26:15;20.50;99.90
32446;DHT22;18899;50.748;7.102;2023-07-13T05:28:41;21.10;97.20
32446;DHT22;18899;50.748;7.102;2023-07-13T05:31:08;21.70;94.90
32446;DHT22;18899;50.748;7.102;2023-07-13T05:33:34;22.20;91.80
32446;DHT22;18899;50.748;7.102;2023-07-13T05:35:59;22.60;90.10
32446;DHT22;18899;50.748;7.102;2023-07-13T05:38:26;22.80;87.70
32446;DHT22;18899;50.748;7.102;2023-07-13T05:40:54;23.00;85.40
32446;DHT22;18899;50.748;7.102;2023-07-13T05:43:20;22.60;85.50
32446;DHT22;18899;50.748;7.102;2023-07-13T05:45:46;22.10;87.60
32446;DHT22;18899;50.748;7.102;2023-07-13T05:48:12;21.50;90.10
32446;DHT22;18899;50.748;7.102;2023-07-13T05:50:37;21.00;91.20
32446;DHT22;18899;50.748;7.102;2023-07-13T05:53:03;20.70;92.70
32446;DHT22;18899;50.748;7.102;2023-07-13T05:55:29;20.50;93.70
32446;DHT22;18899;50.748;7.102;2023-07-13T05:57:54;20.40;94.40
32446;DHT22;18899;50.748;7.102;2023-07-13T06:00:20;20.30;94.70
32446;DHT22;18899;50.748;7.102;2023-07-13T06:02:46;20.40;95.00
32446;DHT22;18899;50.748;7.102;2023-07-13T06:05:11;20.40;95.50
32446;DHT22;18899;50.748;7.102;2023-07-13T06:07:38;20.50;94.90
32446;DHT22;18899;50.748;7.102;2023-07-13T06:10:03;20.70;95.10
32446;DHT22;18899;50.748;7.102;2023-07-13T06:12:29;21.00;94.90
32446;DHT22;18899;50.748;7.102;2023-07-13T06:14:54;21.40;94.50
32446;DHT22;18899;50.748;7.102;2023-07-13T06:17:20;22.00;92.30
32446;DHT22;18899;50.748;7.102;2023-07-13T06:19:45;22.50;90.00
32446;DHT22;18899;50.748;7.102;2023-07-13T06:22:11;23.10;87.20
32446;DHT22;18899;50.748;7.102;2023-07-13T06:24:37;24.00;83.40
32446;DHT22;18899;50.748;7.102;2023-07-13T06:27:02;24.60;79.60
32446;DHT22;18899;50.748;7.102;2023-07-13T06:29:28;25.50;74.60
32446;DHT22;18899;50.748;7.102;2023-07-13T06:31:53;26.30;71.00
32446;DHT22;18899;50.748;7.102;2023-07-13T06:34:19;26.90;67.80
32446;DHT22;18899;50.748;7.102;2023-07-13T06:36:45;26.80;67.50
32446;DHT22;18899;50.748;7.102;2023-07-13T06:39:10;26.70;67.00
32446;DHT22;18899;50.748;7.102;2023-07-13T06:41:36;26.60;66.40
32446;DHT22;18899;50.748;7.102;2023-07-13T06:44:03;26.20;66.10
32446;DHT22;18899;50.748;7.102;2023-07-13T06:46:29;25.60;67.70
32446;DHT22;18899;50.748;7.102;2023-07-13T06:48:55;25.00;69.70
32446;DHT22;18899;50.748;7.102;2023-07-13T06:51:21;24.80;71.50
32446;DHT22;18899;50.748;7.102;2023-07-13T06:53:47;25.30;69.30
32446;DHT22;18899;50.748;7.102;2023-07-13T06:56:13;25.90;67.30
32446;DHT22;18899;50.748;7.102;2023-07-13T06:58:38;26.50;65.40
32446;DHT22;18899;50.748;7.102;2023-07-13T07:01:05;26.60;64.60
32446;DHT22;18899;50.748;7.102;2023-07-13T07:03:30;26.70;63.70
32446;DHT22;18899;50.748;7.102;2023-07-13T07:06:29;27.60;62.70
32446;DHT22;18899;50.748;7.102;2023-07-13T07:08:54;28.30;59.80
32446;DHT22;18899;50.748;7.102;2023-07-13T07:11:22;29.20;57.70
32446;DHT22;18899;50.748;7.102;2023-07-13T07:13:49;29.70;56.80
32446;DHT22;18899;50.748;7.102;2023-07-13T07:16:15;29.70;55.20
32446;DHT22;18899;50.748;7.102;2023-07-13T07:18:41;30.20;53.90
32446;DHT22;18899;50.748;7.102;2023-07-13T07:21:07;30.30;54.50
32446;DHT22;18899;50.748;7.102;2023-07-13T07:23:33;30.50;54.10
32446;DHT22;18899;50.748;7.102;2023-07-13T07:25:58;30.70;51.50
32446;DHT22;18899;50.748;7.102;2023-07-13T07:28:24;30.60;51.90
32446;DHT22;18899;50.748;7.102;2023-07-13T07:30:53;30.30;53.00
32446;DHT22;18899;50.748;7.102;2023-07-13T07:33:18;30.30;52.60
32446;DHT22;18899;50.748;7.102;2023-07-13T07:35:44;29.90;53.70
32446;DHT22;18899;50.748;7.102;2023-07-13T07:38:09;29.80;53.70
32446;DHT22;18899;50.748;7.102;2023-07-13T07:40:39;29.30;55.00
32446;DHT22;18899;50.748;7.102;2023-07-13T07:43:09;29.40;53.40
32446;DHT22;18899;50.748;7.102;2023-07-13T07:45:35;29.40;54.60
32446;DHT22;18899;50.748;7.102;2023-07-13T07:48:03;28.90;54.00
32446;DHT22;18899;50.748;7.102;2023-07-13T07:50:29;29.50;54.40
32446;DHT22;18899;50.748;7.102;2023-07-13T07:52:55;30.50;52.30
32446;DHT22;18899;50.748;7.102;2023-07-13T07:55:24;30.60;52.30
32446;DHT22;18899;50.748;7.102;2023-07-13T07:57:52;30.50;51.70
32446;DHT22;18899;50.748;7.102;2023-07-13T08:00:17;30.00;52.50
32446;DHT22;18899;50.748;7.102;2023-07-13T08:02:43;29.50;53.40
32446;DHT22;18899;50.748;7.102;2023-07-13T08:05:10;28.60;55.50
32446;DHT22;18899;50.748;7.102;2023-07-13T08:07:37;28.30;56.40
32446;DHT22;18899;50.748;7.102;2023-07-13T08:10:03;27.70;57.10
32446;DHT22;18899;50.748;7.102;2023-07-13T08:12:39;27.30;58.20
32446;DHT22;18899;50.748;7.102;2023-07-13T08:15:06;27.40;58.60
32446;DHT22;18899;50.748;7.102;2023-07-13T08:17:34;28.10;58.30
32446;DHT22;18899;50.748;7.102;2023-07-13T08:19:59;28.30;56.40
32446;DHT22;18899;50.748;7.102;2023-07-13T08:22:25;28.50;56.70
32446;DHT22;18899;50.748;7.102;2023-07-13T08:24:50;28.50;56.30
32446;DHT22;18899;50.748;7.102;2023-07-13T08:27:25;29.30;54.90
32446;DHT22;18899;50.748;7.102;2023-07-13T08:29:51;31.40;50.30
32446;DHT22;18899;50.748;7.102;2023-07-13T08:32:19;32.10;48.00
32446;DHT22;18899;50.748;7.102;2023-07-13T08:34:44;31.30;49.50
32446;DHT22;18899;50.748;7.102;2023-07-13T08:37:10;30.40;50.70
32446;DHT22;18899;50.748;7.102;2023-07-13T08:39:36;30.50;51.60
32446;DHT22;18899;50.748;7.102;2023-07-13T08:42:14;30.70;50.80
32446;DHT22;18899;50.748;7.102;2023-07-13T08:45:05;31.20;50.30
32446;DHT22;18899;50.748;7.102;2023-07-13T08:47:37;30.50;50.80
32446;DHT22;18899;50.748;7.102;2023-07-13T08:50:05;30.30;51.80
32446;DHT22;18899;50.748;7.102;2023-07-13T08:52:39;31.00;50.40
32446;DHT22;18899;50.748;7.102;2023-07-13T08:55:24;30.70;51.30
32446;DHT22;18899;50.748;7.102;2023-07-13T08:58:02;31.50;48.80
32446;DHT22;18899;50.748;7.102;2023-07-13T09:00:42;31.40;49.30
32446;DHT22;18899;50.748;7.102;2023-07-13T09:03:22;30.70;48.70
32446;DHT22;18899;50.748;7.102;2023-07-13T09:05:52;30.40;48.50
32446;DHT22;18899;50.748;7.102;2023-07-13T09:09:39;30.10;50.30
32446;DHT22;18899;50.748;7.102;2023-07-13T09:11:49;30.40;49.30
32446;DHT22;18899;50.748;7.102;2023-07-13T09:17:18;29.50;51.10
32446;DHT22;18899;50.748;7.102;2023-07-13T09:19:47;30.10;50.60
32446;DHT22;18899;50.748;7.102;2023-07-13T09:22:20;30.00;50.40
32446;DHT22;18899;50.748;7.102;2023-07-13T09:27:24;29.60;52.10
32446;DHT22;18899;50.748;7.102;2023-07-13T09:32:39;30.10;49.10
32446;DHT22;18899;50.748;7.102;2023-07-13T09:35:12;30.10;50.60
32446;DHT22;18899;50.748;7.102;2023-07-13T09:37:39;29.80;51.50
32446;DHT22;18899;50.748;7.102;2023-07-13T09:40:17;29.70;51.80
32446;DHT22;18899;50.748;7.102;2023-07-13T09:42:46;29.70;52.00
32446;DHT22;18899;50.748;7.102;2023-07-13T09:45:17;29.20;53.00
32446;DHT22;18899;50.748;7.102;2023-07-13T09:47:59;28.70;53.60
32446;DHT22;18899;50.748;7.102;2023-07-13T09:50:25;29.00;53.00
32446;DHT22;18899;50.748;7.102;2023-07-13T09:52:51;28.60;54.30
32446;DHT22;18899;50.748;7.102;2023-07-13T09:55:30;28.40;54.00
32446;DHT22;18899;50.748;7.102;2023-07-13T09:57:56;27.70;54.40
32446;DHT22;18899;50.748;7.102;2023-07-13T10:00:29;27.80;56.60
32446;DHT22;18899;50.748;7.102;2023-07-13T10:03:14;29.30;54.50
32446;DHT22;18899;50.748;7.102;2023-07-13T10:05:43;28.60;53.90
32446;DHT22;18899;50.748;7.102;2023-07-13T10:08:28;28.10;56.40
32446;DHT22;18899;50.748;7.102;2023-07-13T10:11:10;27.70;56.30
32446;DHT22;18899;50.748;7.102;2023-07-13T10:13:40;28.50;54.80
32446;DHT22;18899;50.748;7.102;2023-07-13T10:16:07;29.00;54.00
32446;DHT22;18899;50.748;7.102;2023-07-13T10:18:46;28.00;56.10
32446;DHT22;18899;50.748;7.102;2023-07-13T10:21:19;27.20;57.00
32446;DHT22;18899;50.748;7.102;2023-07-13T10:23:50;26.00;59.60
32446;DHT22;18899;50.748;7.102;2023-07-13T10:26:25;25.20;62.60
32446;DHT22;18899;50.748;7.102;2023-07-13T10:28:54;25.00;64.40
32446;DHT22;18899;50.748;7.102;2023-07-13T10:31:22;24.50;65.80
32446;DHT22;18899;50.748;7.102;2023-07-13T10:33:49;24.20;67.10
32446;DHT22;18899;50.748;7.102;2023-07-13T10:39:28;23.70;70.30
32446;DHT22;18899;50.748;7.102;2023-07-13T10:42:03;24.10;69.90
32446;DHT22;18899;50.748;7.102;2023-07-13T10:44:31;24.70;67.60
32446;DHT22;18899;50.748;7.102;2023-07-13T10:47:07;25.00;67.40
32446;DHT22;18899;50.748;7.102;2023-07-13T10:49:34;24.80;65.60
32446;DHT22;18899;50.748;7.102;2023-07-13T10:52:02;26.00;63.20
32446;DHT22;18899;50.748;7.102;2023-07-13T10:54:34;26.40;61.70
32446;DHT22;18899;50.748;7.102;2023-07-13T10:57:18;26.60;57.10
32446;DHT22;18899;50.748;7.102;2023-07-13T11:00:16;26.90;56.70
32446;DHT22;18899;50.748;7.102;2023-07-13T11:02:42;26.70;56.40
32446;DHT22;18899;50.748;7.102;2023-07-13T11:05:26;26.10;58.20
32446;DHT22;18899;50.748;7.102;2023-07-13T11:08:20;26.00;57.60
32446;DHT22;18899;50.748;7.102;2023-07-13T11:10:52;26.00;56.90
32446;DHT22;18899;50.748;7.102;2023-07-13T11:18:51;25.10;57.30
32446;DHT22;18899;50.748;7.102;2023-07-13T11:23:51;24.90;57.40
32446;DHT22;18899;50.748;7.102;2023-07-13T11:26:40;25.00;58.40
32446;DHT22;18899;50.748;7.102;2023-07-13T11:31:40;25.30;57.70
32446;DHT22;18899;50.748;7.102;2023-07-13T11:34:14;25.40;57.10
32446;DHT22;18899;50.748;7.102;2023-07-13T11:36:44;25.50;56.30
32446;DHT22;18899;50.748;7.102;2023-07-13T11:39:23;25.40;56.20
32446;DHT22;18899;50.748;7.102;2023-07-13T11:41:51;25.40;55.90
32446;DHT22;18899;50.748;7.102;2023-07-13T11:44:20;25.20;56.00
32446;DHT22;18899;50.748;7.102;2023-07-13T11:46:55;25.00;56.40
32446;DHT22;18899;50.748;7.102;2023-07-13T11:49:26;24.80;56.30
32446;DHT22;18899;50.748;7.102;2023-07-13T11:51:52;24.80;57.20
32446;DHT22;18899;50.748;7.102;2023-07-13T11:54:33;24.70;57.30
32446;DHT22;18899;50.748;7.102;2023-07-13T11:57:12;24.70;57.60
32446;DHT22;18899;50.748;7.102;2023-07-13T11:59:43;24.70;57.60
32446;DHT22;18899;50.748;7.102;2023-07-13T12:02:27;24.80;56.90
32446;DHT22;18899;50.748;7.102;2023-07-13T12:04:53;24.60;57.10
32446;DHT22;18899;50.748;7.102;2023-07-13T12:07:19;24.30;56.70
32446;DHT22;18899;50.748;7.102;2023-07-13T12:09:45;24.10;58.00
32446;DHT22;18899;50.748;7.102;2023-07-13T12:12:18;24.00;57.90
32446;DHT22;18899;50.748;7.102;2023-07-13T12:14:44;23.80;58.70
32446;DHT22;18899;50.748;7.102;2023-07-13T12:17:20;23.80;58.80
32446;DHT22;18899;50.748;7.102;2023-07-13T12:19:47;24.10;59.00
32446;DHT22;18899;50.748;7.102;2023-07-13T12:22:15;24.20;59.40
32446;DHT22;18899;50.748;7.102;2023-07-13T12:24:43;24.40;59.30
32446;DHT22;18899;50.748;7.102;2023-07-13T12:27:25;24.60;58.30
32446;DHT22;18899;50.748;7.102;2023-07-13T12:29:57;24.80;58.70
32446;DHT22;18899;50.748;7.102;2023-07-13T12:32:24;25.00;58.10
32446;DHT22;18899;50.748;7.102;2023-07-13T12:34:55;24.70;59.30
32446;DHT22;18899;50.748;7.102;2023-07-13T12:37:21;24.20;60.90
32446;DHT22;18899;50.748;7.102;2023-07-13T12:39:48;23.80;63.10
32446;DHT22;18899;50.748;7.102;2023-07-13T12:42:25;23.50;63.60
32446;DHT22;18899;50.748;7.102;2023-07-13T12:44:58;23.30;64.60
32446;DHT22;18899;50.748;7.102;2023-07-13T12:47:25;23.30;64.40
32446;DHT22;18899;50.748;7.102;2023-07-13T12:49:58;23.60;64.60
32446;DHT22;18899;50.748;7.102;2023-07-13T12:52:34;23.80;62.40
32446;DHT22;18899;50.748;7.102;2023-07-13T12:55:06;24.00;61.50
32446;DHT22;18899;50.748;7.102;2023-07-13T12:57:41;24.30;61.30
32446;DHT22;18899;50.748;7.102;2023-07-13T13:00:32;24.40;60.30
32446;DHT22;18899;50.748;7.102;2023-07-13T13:03:02;24.80;60.70
32446;DHT22;18899;50.748;7.102;2023-07-13T13:05:29;24.50;60.40
32446;DHT22;18899;50.748;7.102;2023-07-13T13:07:55;24.70;61.00
32446;DHT22;18899;50.748;7.102;2023-07-13T13:10:21;24.70;59.90
32446;DHT22;18899;50.748;7.102;2023-07-13T13:12:47;24.60;60.90
32446;DHT22;18899;50.748;7.102;2023-07-13T13:15:13;24.80;58.10
32446;DHT22;18899;50.748;7.102;2023-07-13T13:17:39;24.80;58.00
32446;DHT22;18899;50.748;7.102;2023-07-13T13:20:18;24.80;56.30
32446;DHT22;18899;50.748;7.102;2023-07-13T13:22:44;24.90;56.80
32446;DHT22;18899;50.748;7.102;2023-07-13T13:25:11;24.90;56.50
32446;DHT22;18899;50.748;7.102;2023-07-13T13:27:37;24.90;56.80
32446;DHT22;18899;50.748;7.102;2023-07-13T13:30:16;25.20;57.50
32446;DHT22;18899;50.748;7.102;2023-07-13T13:32:44;25.30;57.20
32446;DHT22;18899;50.748;7.102;2023-07-13T13:35:15;25.30;57.80
32446;DHT22;18899;50.748;7.102;2023-07-13T13:37:41;25.20;57.80
32446;DHT22;18899;50.748;7.102;2023-07-13T13:40:17;25.20;58.00
32446;DHT22;18899;50.748;7.102;2023-07-13T13:42:43;25.10;58.40
32446;DHT22;18899;50.748;7.102;2023-07-13T13:45:12;25.30;57.50
32446;DHT22;18899;50.748;7.102;2023-07-13T13:47:39;25.60;57.80
32446;DHT22;18899;50.748;7.102;2023-07-13T13:50:15;25.80;57.40
32446;DHT22;18899;50.748;7.102;2023-07-13T13:52:41;25.80;58.40
32446;DHT22;18899;50.748;7.102;2023-07-13T13:55:18;25.40;57.70
32446;DHT22;18899;50.748;7.102;2023-07-13T13:57:45;25.20;58.50
32446;DHT22;18899;50.748;7.102;2023-07-13T14:00:12;25.30;58.70
32446;DHT22;18899;50.748;7.102;2023-07-13T14:02:44;25.30;58.50
32446;DHT22;18899;50.748;7.102;2023-07-13T14:05:14;25.50;58.40
32446;DHT22;18899;50.748;7.102;2023-07-13T14:07:41;25.70;57.00
32446;DHT22;18899;50.748;7.102;2023-07-13T14:10:15;25.40;56.80
32446;DHT22;18899;50.748;7.102;2023-07-13T14:12:43;25.20;57.50
32446;DHT22;18899;50.748;7.102;2023-07-13T14:15:30;25.20;57.20
32446;DHT22;18899;50.748;7.102;2023-07-13T14:17:59;25.40;57.30
32446;DHT22;18899;50.748;7.102;2023-07-13T14:20:25;25.60;56.40
32446;DHT22;18899;50.748;7.102;2023-07-13T14:22:52;25.80;56.40
32446;DHT22;18899;50.748;7.102;2023-07-13T14:25:19;26.10;56.40
32446;DHT22;18899;50.748;7.102;2023-07-13T14:27:46;25.90;55.60
32446;DHT22;18899;50.748;7.102;2023-07-13T14:30:18;25.80;54.90
32446;DHT22;18899;50.748;7.102;2023-07-13T14:32:45;25.60;54.10
32446;DHT22;18899;50.748;7.102;2023-07-13T14:35:15;25.40;54.80
32446;DHT22;18899;50.748;7.102;2023-07-13T14:37:41;25.50;54.80
32446;DHT22;18899;50.748;7.102;2023-07-13T14:40:25;25.50;55.40
32446;DHT22;18899;50.748;7.102;2023-07-13T14:42:51;25.40;55.50
32446;DHT22;18899;50.748;7.102;2023-07-13T14:45:18;25.20;57.10
32446;DHT22;18899;50.748;7.102;2023-07-13T14:47:45;25.20;57.80
32446;DHT22;18899;50.748;7.102;2023-07-13T14:50:17;25.30;57.70
32446;DHT22;18899;50.748;7.102;2023-07-13T14:52:43;25.30;56.80
32446;DHT22;18899;50.748;7.102;2023-07-13T14:55:17;25.40;56.40
32446;DHT22;18899;50.748;7.102;2023-07-13T14:57:43;25.40;56.80
32446;DHT22;18899;50.748;7.102;2023-07-13T15:00:14;25.30;56.60
32446;DHT22;18899;50.748;7.102;2023-07-13T15:02:42;25.30;56.30
32446;DHT22;18899;50.748;7.102;2023-07-13T15:05:16;25.40;56.80
32446;DHT22;18899;50.748;7.102;2023-07-13T15:07:42;25.30;56.50
32446;DHT22;18899;50.748;7.102;2023-07-13T15:10:18;25.20;58.10
32446;DHT22;18899;50.748;7.102;2023-07-13T15:12:44;25.20;58.00
32446;DHT22;18899;50.748;7.102;2023-07-13T15:15:10;25.30;56.60
32446;DHT22;18899;50.748;7.102;2023-07-13T15:17:41;25.40;56.60
32446;DHT22;18899;50.748;7.102;2023-07-13T15:22:45;25.50;54.40
32446;DHT22;18899;50.748;7.102;2023-07-13T15:25:20;25.30;55.00
32446;DHT22;18899;50.748;7.102;2023-07-13T15:27:47;25.20;55.90
32446;DHT22;18899;50.748;7.102;2023-07-13T15:30:13;25.00;56.40
32446;DHT22;18899;50.748;7.102;2023-07-13T15:32:41;24.70;56.60
32446;DHT22;18899;50.748;7.102;2023-07-13T15:35:27;24.70;58.30
32446;DHT22;18899;50.748;7.102;2023-07-13T15:37:53;24.90;56.40
32446;DHT22;18899;50.748;7.102;2023-07-13T15:40:19;24.90;56.60
32446;DHT22;18899;50.748;7.102;2023-07-13T15:42:47;24.80;57.80
32446;DHT22;18899;50.748;7.102;2023-07-13T15:45:17;24.90;56.80
32446;DHT22;18899;50.748;7.102;2023-07-13T15:47:44;24.90;57.20
32446;DHT22;18899;50.748;7.102;2023-07-13T15:50:40;24.70;56.70
32446;DHT22;18899;50.748;7.102;2023-07-13T15:53:09;24.50;57.90
32446;DHT22;18899;50.748;7.102;2023-07-13T15:55:38;24.40;57.90
32446;DHT22;18899;50.748;7.102;2023-07-13T15:58:04;24.30;58.90
32446;DHT22;18899;50.748;7.102;2023-07-13T16:00:29;24.40;58.10
32446;DHT22;18899;50.748;7.102;2023-07-13T16:02:55;24.10;58.50
32446;DHT22;18899;50.748;7.102;2023-07-13T16:05:22;23.90;59.20
32446;DHT22;18899;50.748;7.102;2023-07-13T16:07:50;23.90;60.00